Kezdőlap
METAR-TAF:

METAR-TAF

Repülőterek :

Dakar, Szenegál

földrajzi szélesség: 14-44N, földrajzi hosszúság: 017-30W, magasság: 27 m

Jelenlegi meteorológiai megfigyelések

A jelentés 1 órával és 9 perccel ezelõtt készült, 03:00 UTC
Nyugati szél 8 kt
Hőmérséklet 27°C
Páratartalom 84%
Légköri nyomás 1012 hPa
Látótávolság: 8000 m
Szórványos felhőzet 1300 lábon

METAR: GOOY 190300Z 28008KT 8000 SCT013 27/24 Q1012

Idő: 04:09 (04:09 UTC)

Előrejelzés

A jelentés 4 órával és 39 perccel ezelõtt készült, 23:30 UTC
Az előrejelzés 19-én 00 óra UTC és 20-én 06 óra UTC között érvényes
Délnyugati szél 8 kt
Látótávolság 10 km, vagy több
Szórványos felhőzet 1300 lábon

TAF: GOOY 182330Z 1900/2006 22008KT 9999 SCT013

Meteorológiai megfigyelések és előrejelzések több, mint 4000 repülőtéren (METAR és TAF jelentéseket).

A térképen piros és sárga pontok jelzik az elérhető meteorológiai állomásokat.

Mozgassa az egeret a pont fölött, hogy megjelenjen az állomás neve.

Azután kattintson az időjárási megfigyelések és előrejelzések megtekintéséhez.

A térkép megváltoztatása: kattintson a fekete keresztel jelölt zöld gombra ráközelítéshez, a vonallal jelölt zöld gombra távolításhoz, vagy a zöld nyilakra a szomszédos térképek eléréséhez.


METAR-TAF: